Time;durP1;ratioP1;P1;durP2;ratioP2;P2;SDS_P1;SDS_P2;PMS_P1;PMS_P2;Temp;Humidity;BMP_temperature;BMP_pressure;BME280_temperature;BME280_humidity;BME280_pressure;Samples;Min_cycle;Max_cycle;Signal;HPM_P1;HPM_P2
2021/09/23 00:00:33;;;;;;;1.52;0.93;;;23.70;49.80;;;;;;5027600;28;20099;-59
2021/09/23 00:05:27;;;;;;;1.50;1.10;;;23.70;49.80;;;;;;5027948;28;20052;-59
2021/09/23 00:07:55;;;;;;;1.33;0.90;;;23.70;49.80;;;;;;5026079;28;20465;-57
2021/09/23 00:10:24;;;;;;;1.10;0.80;;;23.70;49.90;;;;;;5027430;28;20420;-59
2021/09/23 00:12:51;;;;;;;1.27;0.90;;;23.70;49.90;;;;;;5025146;28;20021;-59
2021/09/23 00:15:17;;;;;;;1.90;0.90;;;23.70;49.90;;;;;;5031796;28;20077;-59
2021/09/23 00:17:48;;;;;;;2.10;1.00;;;23.70;49.90;;;;;;5031036;28;20024;-59
2021/09/23 00:20:16;;;;;;;1.45;0.88;;;23.60;49.90;;;;;;5016550;28;20112;-59
2021/09/23 00:22:41;;;;;;;1.85;1.10;;;23.60;49.90;;;;;;5027278;28;20606;-59
2021/09/23 00:25:08;;;;;;;1.77;1.10;;;23.60;49.90;;;;;;5019768;28;20021;-59
2021/09/23 00:27:34;;;;;;;1.30;0.82;;;23.60;49.90;;;;;;5025559;28;20129;-59
2021/09/23 00:29:59;;;;;;;1.67;1.10;;;23.60;49.90;;;;;;5024276;28;20170;-59
2021/09/23 00:32:25;;;;;;;1.42;0.80;;;23.60;50.00;;;;;;5030627;28;20025;-59
2021/09/23 00:34:50;;;;;;;1.85;1.05;;;23.60;49.90;;;;;;5042579;28;20036;-53
2021/09/23 00:37:16;;;;;;;1.15;0.82;;;23.60;50.00;;;;;;5036629;28;20059;-59
2021/09/23 00:39:42;;;;;;;1.67;1.00;;;23.60;50.00;;;;;;5043507;28;20166;-58
2021/09/23 00:42:08;;;;;;;1.48;1.00;;;23.60;50.00;;;;;;5024478;28;20034;-59
2021/09/23 00:44:33;;;;;;;1.70;1.08;;;23.60;50.50;;;;;;5035455;28;20044;-59
2021/09/23 00:46:59;;;;;;;1.40;0.90;;;23.50;50.00;;;;;;5033950;28;20040;-58
2021/09/23 00:49:25;;;;;;;1.52;1.00;;;23.50;50.00;;;;;;5038081;28;20036;-58
2021/09/23 00:51:51;;;;;;;1.80;1.00;;;23.50;50.00;;;;;;5025625;28;20489;-60
2021/09/23 00:54:17;;;;;;;1.38;0.90;;;23.50;50.00;;;;;;5024804;28;20048;-59
2021/09/23 00:56:43;;;;;;;1.92;0.98;;;23.50;50.00;;;;;;5026675;28;20048;-58
2021/09/23 00:59:09;;;;;;;1.20;0.88;;;23.50;50.00;;;;;;5023188;28;20021;-59
2021/09/23 01:01:34;;;;;;;0.95;0.85;;;23.50;50.00;;;;;;5013154;28;20073;-59
2021/09/23 01:04:00;;;;;;;1.38;0.90;;;23.50;50.10;;;;;;5034009;28;20049;-55
2021/09/23 01:06:26;;;;;;;1.33;0.90;;;23.50;50.10;;;;;;5034732;28;20130;-59
2021/09/23 01:09:00;;;;;;;1.60;1.00;;;23.40;50.00;;;;;;5021617;28;20101;-58
2021/09/23 01:11:29;;;;;;;1.88;1.10;;;23.40;50.10;;;;;;5025052;28;20022;-60
2021/09/23 01:13:55;;;;;;;1.42;0.90;;;23.40;50.10;;;;;;5024429;28;20017;-59
2021/09/23 01:16:21;;;;;;;1.92;0.90;;;23.40;50.10;;;;;;5029432;28;20038;-55
2021/09/23 01:18:47;;;;;;;1.67;0.90;;;23.40;50.10;;;;;;5025694;28;20072;-59
2021/09/23 01:21:13;;;;;;;1.40;1.00;;;23.40;50.10;;;;;;5030720;28;20516;-59
2021/09/23 01:23:41;;;;;;;1.10;0.85;;;23.40;50.10;;;;;;5029127;28;20140;-59
2021/09/23 01:26:12;;;;;;;1.67;0.98;;;23.40;50.20;;;;;;5026446;28;20108;-59
2021/09/23 01:28:40;;;;;;;1.70;1.10;;;23.40;50.20;;;;;;5027038;28;20033;-56
2021/09/23 01:31:07;;;;;;;2.00;1.00;;;23.40;50.20;;;;;;5030087;28;20100;-56
2021/09/23 01:33:33;;;;;;;2.17;0.98;;;23.40;50.20;;;;;;5029680;28;20032;-58
2021/09/23 01:35:59;;;;;;;1.65;0.90;;;23.30;50.20;;;;;;5031930;28;20517;-59
2021/09/23 01:38:26;;;;;;;1.42;0.90;;;23.30;50.20;;;;;;5034441;28;20025;-58
2021/09/23 01:40:52;;;;;;;1.23;0.98;;;23.30;50.20;;;;;;5035080;28;20061;-60
2021/09/23 01:43:17;;;;;;;0.90;0.80;;;23.30;50.20;;;;;;5027318;28;20045;-57
2021/09/23 01:45:45;;;;;;;1.70;0.90;;;23.30;50.20;;;;;;5031054;28;20022;-59
2021/09/23 01:48:10;;;;;;;1.52;0.90;;;23.30;50.20;;;;;;5031193;28;20172;-60
2021/09/23 01:50:36;;;;;;;1.77;0.95;;;23.30;50.20;;;;;;5031056;28;20096;-59
2021/09/23 01:53:02;;;;;;;1.38;0.90;;;23.30;50.30;;;;;;5025277;28;20033;-59
2021/09/23 01:55:27;;;;;;;1.65;0.95;;;23.30;50.30;;;;;;5016314;28;20064;-60
2021/09/23 01:57:53;;;;;;;1.10;0.80;;;23.30;50.30;;;;;;5024254;28;20040;-60
2021/09/23 02:00:19;;;;;;;1.67;0.90;;;23.20;50.30;;;;;;5032068;28;20038;-59
2021/09/23 02:02:44;;;;;;;1.85;1.00;;;23.20;50.30;;;;;;5035081;28;20023;-59
2021/09/23 02:05:10;;;;;;;1.40;0.95;;;23.20;50.30;;;;;;5031662;28;20362;-56
2021/09/23 02:07:36;;;;;;;1.38;1.00;;;23.20;50.30;;;;;;5029182;28;20064;-58
2021/09/23 02:10:03;;;;;;;1.50;1.00;;;23.20;50.30;;;;;;5031799;28;20450;-59
2021/09/23 02:12:29;;;;;;;1.17;0.80;;;23.20;50.30;;;;;;5024316;28;20053;-59
2021/09/23 02:14:54;;;;;;;1.50;1.15;;;23.20;50.40;;;;;;5033443;28;20378;-57
2021/09/23 02:17:20;;;;;;;1.27;1.00;;;23.20;50.40;;;;;;5036342;28;20025;-59
2021/09/23 02:19:45;;;;;;;1.63;0.90;;;23.20;50.30;;;;;;5039373;28;20025;-56
2021/09/23 02:22:11;;;;;;;1.20;0.90;;;23.20;50.40;;;;;;5030044;28;20022;-53
2021/09/23 02:24:37;;;;;;;1.27;0.90;;;23.20;50.30;;;;;;5028445;28;20026;-56
2021/09/23 02:27:03;;;;;;;1.33;0.85;;;23.10;50.30;;;;;;5029435;28;20155;-59
2021/09/23 02:29:28;;;;;;;1.80;0.93;;;23.10;50.30;;;;;;5027749;28;20021;-59
2021/09/23 02:31:54;;;;;;;1.02;0.82;;;23.10;50.30;;;;;;5019622;28;20042;-60
2021/09/23 02:34:19;;;;;;;1.77;0.90;;;23.10;50.30;;;;;;5029536;28;20028;-59
2021/09/23 02:36:45;;;;;;;0.95;0.85;;;23.10;50.40;;;;;;5028680;28;20416;-58
2021/09/23 02:39:11;;;;;;;1.00;0.85;;;23.10;50.40;;;;;;5028835;28;20049;-58
2021/09/23 02:41:36;;;;;;;1.27;1.05;;;23.10;50.40;;;;;;5029495;28;20026;-57
2021/09/23 02:44:03;;;;;;;1.20;0.90;;;23.10;50.40;;;;;;5026225;28;20029;-59
2021/09/23 02:46:28;;;;;;;1.33;0.90;;;23.10;50.40;;;;;;5030153;28;20025;-59
2021/09/23 02:48:55;;;;;;;1.30;0.80;;;23.10;50.40;;;;;;5034722;28;20024;-59
2021/09/23 02:51:22;;;;;;;1.98;0.85;;;23.10;50.40;;;;;;5022264;28;20024;-59
2021/09/23 02:53:47;;;;;;;1.10;0.80;;;23.00;50.40;;;;;;5032416;28;20033;-59
2021/09/23 02:56:13;;;;;;;1.15;0.88;;;23.10;50.40;;;;;;5029843;28;20025;-60
2021/09/23 02:58:39;;;;;;;1.30;0.95;;;23.10;50.40;;;;;;5026089;28;20401;-59
2021/09/23 03:01:04;;;;;;;0.98;0.80;;;23.00;50.40;;;;;;5025415;28;20042;-59
2021/09/23 03:03:30;;;;;;;0.80;0.75;;;23.00;50.40;;;;;;5023050;28;20488;-57
2021/09/23 03:05:56;;;;;;;1.00;0.90;;;23.00;50.40;;;;;;5031980;28;20084;-56
2021/09/23 03:08:23;;;;;;;1.83;0.98;;;23.00;50.40;;;;;;5028621;28;20091;-59
2021/09/23 03:10:48;;;;;;;1.10;0.80;;;23.00;50.40;;;;;;5022804;28;20014;-59
2021/09/23 03:13:14;;;;;;;1.35;0.80;;;23.00;50.40;;;;;;5026456;28;20036;-58
2021/09/23 03:15:40;;;;;;;1.45;0.90;;;23.00;50.40;;;;;;5029038;28;20033;-56
2021/09/23 03:18:05;;;;;;;1.48;0.90;;;23.00;50.40;;;;;;5028779;28;20108;-58
2021/09/23 03:20:31;;;;;;;0.82;0.80;;;23.00;50.50;;;;;;5042431;28;20049;-54
2021/09/23 03:22:57;;;;;;;1.33;0.90;;;23.00;50.50;;;;;;5028334;28;20558;-59
2021/09/23 03:25:23;;;;;;;2.22;1.23;;;23.00;50.50;;;;;;5025711;28;20033;-56
2021/09/23 03:27:50;;;;;;;1.27;0.82;;;23.00;50.50;;;;;;5027624;28;20030;-54
2021/09/23 03:30:16;;;;;;;1.20;0.88;;;23.00;50.50;;;;;;5035685;28;20029;-60
2021/09/23 03:32:41;;;;;;;1.98;1.20;;;23.00;50.50;;;;;;5027671;28;20025;-60
2021/09/23 03:35:08;;;;;;;1.00;0.80;;;23.00;50.50;;;;;;5028000;28;20133;-60
2021/09/23 03:37:34;;;;;;;1.38;0.90;;;23.00;50.50;;;;;;5026583;28;20025;-53
2021/09/23 03:40:00;;;;;;;1.10;0.80;;;23.00;50.50;;;;;;5028979;28;20072;-57
2021/09/23 03:42:26;;;;;;;1.48;0.90;;;22.90;50.40;;;;;;5025883;28;20450;-59
2021/09/23 03:44:51;;;;;;;1.20;0.88;;;22.90;50.40;;;;;;5028114;28;20030;-59
2021/09/23 03:47:17;;;;;;;1.25;0.90;;;22.90;50.40;;;;;;5022126;28;20025;-59
2021/09/23 03:49:43;;;;;;;1.30;0.90;;;22.90;50.50;;;;;;5019564;28;20504;-55
2021/09/23 03:52:08;;;;;;;1.08;0.90;;;22.90;50.50;;;;;;5028577;28;20369;-57
2021/09/23 03:54:34;;;;;;;1.10;0.80;;;22.90;50.50;;;;;;5025471;28;20035;-57
2021/09/23 03:56:59;;;;;;;0.80;0.70;;;22.90;50.50;;;;;;5026106;28;20100;-55
2021/09/23 03:59:25;;;;;;;1.05;0.80;;;22.90;50.50;;;;;;5026111;28;20029;-58
2021/09/23 04:01:50;;;;;;;1.08;0.85;;;22.90;50.50;;;;;;5031389;28;20072;-57
2021/09/23 04:04:16;;;;;;;1.27;0.80;;;22.80;50.50;;;;;;5028200;28;20152;-58
2021/09/23 04:06:43;;;;;;;1.25;0.90;;;22.80;50.50;;;;;;5026902;28;20025;-56
2021/09/23 04:09:12;;;;;;;1.35;0.90;;;22.80;50.50;;;;;;5026729;28;20090;-56
2021/09/23 04:11:38;;;;;;;1.33;1.00;;;22.80;50.50;;;;;;5028457;28;20091;-59
2021/09/23 04:14:05;;;;;;;1.27;0.90;;;22.80;50.50;;;;;;5025395;28;20030;-56
2021/09/23 04:16:31;;;;;;;1.15;0.80;;;22.80;50.50;;;;;;5026348;28;20051;-58
2021/09/23 04:18:57;;;;;;;1.00;0.80;;;22.80;51.10;;;;;;5025868;28;20129;-59
2021/09/23 04:21:23;;;;;;;0.98;0.80;;;22.80;50.60;;;;;;5034922;28;20437;-52
2021/09/23 04:23:49;;;;;;;1.25;0.90;;;22.80;50.60;;;;;;5023675;28;20596;-61
2021/09/23 04:26:14;;;;;;;1.33;0.80;;;22.80;50.60;;;;;;5027959;28;20037;-61
2021/09/23 04:28:40;;;;;;;1.80;0.98;;;22.80;50.60;;;;;;5029880;28;20028;-59
2021/09/23 04:31:06;;;;;;;1.35;1.00;;;22.80;50.60;;;;;;5024376;28;20072;-61
2021/09/23 04:33:32;;;;;;;1.40;0.90;;;22.80;50.60;;;;;;5033424;28;20025;-57
2021/09/23 04:35:58;;;;;;;1.15;0.88;;;22.80;50.60;;;;;;5022504;28;20068;-59
2021/09/23 04:38:23;;;;;;;1.25;0.88;;;22.80;50.60;;;;;;5024351;28;20029;-58
2021/09/23 04:40:49;;;;;;;1.33;0.90;;;22.80;50.60;;;;;;5022419;28;20060;-55
2021/09/23 04:43:16;;;;;;;1.10;0.85;;;22.70;51.10;;;;;;5034160;28;20085;-54
2021/09/23 04:45:42;;;;;;;1.70;0.88;;;22.80;50.70;;;;;;5029501;28;20027;-59
2021/09/23 04:48:07;;;;;;;1.15;0.73;;;22.70;50.60;;;;;;5025884;28;20120;-60
2021/09/23 04:50:33;;;;;;;1.58;0.80;;;22.70;50.60;;;;;;5028695;28;20025;-60
2021/09/23 04:53:00;;;;;;;1.30;0.80;;;22.70;50.70;;;;;;5037588;28;20048;-60
2021/09/23 04:55:27;;;;;;;2.00;0.80;;;22.70;51.20;;;;;;5017019;28;20030;-59
2021/09/23 04:57:52;;;;;;;1.73;0.90;;;22.70;50.70;;;;;;5025237;28;20067;-60
2021/09/23 05:00:19;;;;;;;1.73;0.90;;;22.70;50.80;;;;;;5025640;28;20450;-59
2021/09/23 05:02:46;;;;;;;1.58;0.88;;;22.70;50.70;;;;;;5033553;28;20059;-55
2021/09/23 05:05:12;;;;;;;1.63;0.90;;;22.70;50.80;;;;;;5031979;28;20037;-59
2021/09/23 05:07:37;;;;;;;1.13;0.85;;;22.70;50.80;;;;;;5028152;28;20381;-58
2021/09/23 05:10:04;;;;;;;1.95;1.08;;;22.70;50.80;;;;;;5029732;28;20037;-61
2021/09/23 05:12:29;;;;;;;2.40;1.00;;;22.70;50.80;;;;;;5025522;28;20733;-59
2021/09/23 05:14:55;;;;;;;1.52;0.90;;;22.60;50.80;;;;;;5019657;28;20092;-56
2021/09/23 05:17:20;;;;;;;2.75;0.95;;;22.60;50.80;;;;;;5008811;28;20517;-58
2021/09/23 05:19:47;;;;;;;2.10;1.10;;;22.70;50.90;;;;;;5022271;28;20060;-56
2021/09/23 05:22:13;;;;;;;1.33;1.00;;;22.60;50.90;;;;;;5027179;28;20033;-54
2021/09/23 05:24:38;;;;;;;2.25;1.20;;;22.60;51.00;;;;;;5019165;28;20029;-49
2021/09/23 05:27:04;;;;;;;2.10;1.00;;;22.70;51.00;;;;;;5038661;28;20016;-58
2021/09/23 05:29:30;;;;;;;2.15;1.05;;;22.80;50.60;;;;;;5030230;28;20065;-58
2021/09/23 05:31:56;;;;;;;1.73;1.00;;;23.00;50.50;;;;;;5030914;28;20591;-60
2021/09/23 05:34:22;;;;;;;1.77;1.05;;;23.00;50.30;;;;;;5021225;28;20025;-58
2021/09/23 05:36:48;;;;;;;1.50;0.90;;;23.10;50.20;;;;;;5036811;28;20047;-56
2021/09/23 05:39:13;;;;;;;2.60;1.23;;;23.10;50.10;;;;;;5034720;28;20030;-60
2021/09/23 05:41:41;;;;;;;1.92;1.10;;;23.20;50.00;;;;;;5032226;28;20039;-52
2021/09/23 05:44:08;;;;;;;1.25;0.90;;;23.30;49.90;;;;;;5025977;28;20124;-54
2021/09/23 05:46:33;;;;;;;2.30;1.00;;;23.40;49.80;;;;;;5029535;28;20113;-56
2021/09/23 05:48:59;;;;;;;1.95;1.10;;;23.40;49.70;;;;;;5038868;28;20104;-58
2021/09/23 05:51:25;;;;;;;1.48;1.00;;;23.50;49.60;;;;;;5033165;28;20430;-50
2021/09/23 05:53:50;;;;;;;2.47;0.98;;;23.60;49.60;;;;;;5028810;28;20078;-57
2021/09/23 05:56:16;;;;;;;3.15;1.00;;;23.60;49.50;;;;;;5025665;28;20492;-56
2021/09/23 05:58:42;;;;;;;1.65;0.90;;;23.70;49.30;;;;;;5035519;28;20096;-58
2021/09/23 06:01:08;;;;;;;2.40;0.90;;;23.70;49.30;;;;;;5030796;28;20045;-56
2021/09/23 06:03:33;;;;;;;1.70;1.00;;;23.70;49.30;;;;;;5026929;28;20487;-60
2021/09/23 06:05:59;;;;;;;1.55;0.90;;;23.70;49.30;;;;;;5039671;28;20029;-58
2021/09/23 06:08:24;;;;;;;1.35;0.90;;;23.70;49.30;;;;;;5029016;28;20041;-60
2021/09/23 06:10:50;;;;;;;1.88;0.90;;;23.70;49.30;;;;;;5026872;28;20048;-57
2021/09/23 06:13:16;;;;;;;2.33;1.10;;;23.70;49.40;;;;;;5028350;28;20025;-58
2021/09/23 06:15:41;;;;;;;1.73;0.95;;;23.70;49.30;;;;;;5049896;28;20027;-60
2021/09/23 06:18:07;;;;;;;2.90;1.20;;;23.70;49.80;;;;;;5035535;28;20039;-58
2021/09/23 06:20:33;;;;;;;1.65;0.93;;;23.70;49.30;;;;;;5036558;28;20033;-59
2021/09/23 06:22:58;;;;;;;2.63;0.98;;;23.70;49.20;;;;;;5043974;28;20064;-53
2021/09/23 06:25:24;;;;;;;1.73;1.10;;;23.70;49.10;;;;;;5025208;28;20493;-58
2021/09/23 06:27:50;;;;;;;1.77;1.00;;;23.70;49.10;;;;;;5020468;28;20040;-58
2021/09/23 06:30:17;;;;;;;2.03;1.10;;;23.80;49.20;;;;;;5035316;28;20590;-56
2021/09/23 06:32:43;;;;;;;1.88;1.00;;;23.70;49.10;;;;;;5030167;28;20036;-57
2021/09/23 06:35:09;;;;;;;2.15;0.90;;;23.70;49.10;;;;;;5030559;28;20706;-60
2021/09/23 06:37:35;;;;;;;1.55;0.90;;;23.70;49.10;;;;;;5026870;28;20065;-56
2021/09/23 06:40:01;;;;;;;1.85;1.05;;;23.70;49.10;;;;;;5028927;28;20470;-60
2021/09/23 06:42:27;;;;;;;1.40;1.00;;;23.70;49.10;;;;;;5041926;28;20150;-53
2021/09/23 06:44:52;;;;;;;1.77;1.17;;;23.70;49.10;;;;;;5058240;28;20072;-60
2021/09/23 06:47:18;;;;;;;2.05;1.00;;;23.70;49.10;;;;;;5046270;28;20029;-60
2021/09/23 06:49:44;;;;;;;1.85;1.00;;;23.70;49.10;;;;;;5038146;28;20021;-60
2021/09/23 06:52:09;;;;;;;1.38;1.00;;;23.70;49.10;;;;;;5034767;28;20026;-59
2021/09/23 06:54:35;;;;;;;1.52;1.00;;;23.70;49.10;;;;;;5029149;28;20575;-55
2021/09/23 06:57:00;;;;;;;1.55;1.15;;;23.70;49.10;;;;;;5037691;28;20061;-58
2021/09/23 06:59:26;;;;;;;1.65;0.90;;;23.70;49.10;;;;;;5052947;28;20033;-59
2021/09/23 07:01:52;;;;;;;1.70;1.00;;;23.80;49.10;;;;;;5042102;28;20021;-53
2021/09/23 07:04:18;;;;;;;1.50;0.98;;;23.80;49.10;;;;;;5049359;28;20121;-60
2021/09/23 07:06:44;;;;;;;1.00;0.80;;;23.70;49.00;;;;;;5032821;28;20136;-59
2021/09/23 07:09:09;;;;;;;1.23;0.90;;;23.80;49.40;;;;;;5030400;28;20059;-61
2021/09/23 07:11:35;;;;;;;1.48;1.00;;;23.80;49.00;;;;;;5022524;28;20018;-59
2021/09/23 07:14:01;;;;;;;2.10;1.10;;;23.80;49.00;;;;;;5015773;28;20017;-53
2021/09/23 07:16:27;;;;;;;1.55;0.90;;;23.80;49.00;;;;;;5021169;28;20045;-58
2021/09/23 07:18:52;;;;;;;1.73;1.00;;;23.80;49.00;;;;;;5042619;28;20024;-59
2021/09/23 07:21:18;;;;;;;1.45;0.90;;;23.80;49.00;;;;;;5038762;28;20103;-59
2021/09/23 07:23:44;;;;;;;1.63;0.77;;;23.80;49.10;;;;;;5024024;28;22057;-57
2021/09/23 07:26:10;;;;;;;1.40;0.82;;;23.80;49.20;;;;;;5032759;28;20085;-59
2021/09/23 07:28:35;;;;;;;1.63;0.90;;;23.80;49.20;;;;;;5041441;28;20126;-59
2021/09/23 07:31:02;;;;;;;1.17;0.80;;;23.80;49.20;;;;;;5046893;28;20124;-53
2021/09/23 07:33:28;;;;;;;2.13;1.02;;;23.70;49.20;;;;;;5017575;28;20064;-59
2021/09/23 07:35:54;;;;;;;1.08;0.80;;;23.80;49.20;;;;;;5034853;28;20062;-59
2021/09/23 07:38:21;;;;;;;1.67;0.88;;;23.80;49.10;;;;;;5045909;28;20033;-58
2021/09/23 07:40:47;;;;;;;2.47;1.15;;;23.80;49.10;;;;;;5038283;28;20074;-56
2021/09/23 07:43:13;;;;;;;1.85;1.02;;;23.80;49.00;;;;;;5031484;28;20489;-59
2021/09/23 07:45:39;;;;;;;1.02;0.93;;;23.90;49.00;;;;;;5026086;28;20045;-54
2021/09/23 07:48:05;;;;;;;2.80;1.00;;;23.90;49.00;;;;;;5020905;28;20030;-58
2021/09/23 07:50:30;;;;;;;1.95;0.80;;;23.90;49.20;;;;;;5026262;28;20044;-56
2021/09/23 07:52:56;;;;;;;1.35;0.75;;;23.90;49.10;;;;;;5021953;28;20101;-58
2021/09/23 07:55:22;;;;;;;1.10;0.80;;;23.90;49.00;;;;;;5018120;28;20021;-53
2021/09/23 07:57:48;;;;;;;1.52;0.82;;;23.90;49.00;;;;;;5028225;28;20435;-58
2021/09/23 08:00:15;;;;;;;1.88;0.93;;;23.90;49.00;;;;;;5027439;28;20031;-58
2021/09/23 08:02:41;;;;;;;1.48;0.80;;;23.90;49.00;;;;;;5039397;28;20665;-53
2021/09/23 08:05:07;;;;;;;1.75;0.80;;;23.90;48.90;;;;;;5026232;28;20064;-56
2021/09/23 08:07:32;;;;;;;1.48;0.70;;;23.90;49.00;;;;;;5026657;28;20022;-58
2021/09/23 08:09:58;;;;;;;1.33;0.90;;;24.00;49.10;;;;;;5025577;28;20040;-56
2021/09/23 08:12:24;;;;;;;1.00;0.70;;;24.00;49.00;;;;;;5014797;28;20039;-56
2021/09/23 08:14:49;;;;;;;1.13;0.80;;;24.00;49.00;;;;;;5027832;28;20108;-58
2021/09/23 08:17:15;;;;;;;1.90;1.13;;;24.00;49.00;;;;;;5028474;28;20029;-56
2021/09/23 08:19:40;;;;;;;1.83;1.08;;;24.10;49.00;;;;;;5030811;28;20025;-58
2021/09/23 08:22:07;;;;;;;1.00;0.80;;;24.10;48.80;;;;;;5028684;28;20295;-56
2021/09/23 08:24:34;;;;;;;1.52;0.80;;;24.10;48.80;;;;;;5035202;28;20096;-53
2021/09/23 08:27:00;;;;;;;1.17;0.95;;;24.10;48.90;;;;;;5025673;28;20025;-58
2021/09/23 08:29:26;;;;;;;1.73;0.93;;;24.10;48.90;;;;;;5025737;28;20032;-57
2021/09/23 08:31:51;;;;;;;0.60;0.60;;;24.10;49.20;;;;;;5030418;28;20455;-55
2021/09/23 08:34:17;;;;;;;1.35;0.90;;;24.10;48.90;;;;;;5027596;28;20330;-55
2021/09/23 08:36:44;;;;;;;1.88;0.75;;;24.10;49.00;;;;;;5023486;28;20060;-57
2021/09/23 08:39:10;;;;;;;1.17;0.80;;;24.10;49.00;;;;;;5025686;28;20083;-57
2021/09/23 08:41:37;;;;;;;1.83;0.75;;;24.10;49.00;;;;;;5028300;28;20048;-54
2021/09/23 08:44:03;;;;;;;1.13;0.70;;;24.10;48.90;;;;;;5028819;28;20052;-58
2021/09/23 08:46:33;;;;;;;1.45;0.80;;;24.20;48.90;;;;;;5035388;28;20532;-58
2021/09/23 08:49:00;;;;;;;1.60;0.85;;;24.20;49.10;;;;;;5040879;28;20033;-56
2021/09/23 08:51:27;;;;;;;1.42;0.90;;;24.20;49.10;;;;;;5045725;28;20071;-57
2021/09/23 08:53:53;;;;;;;1.35;0.90;;;24.20;48.90;;;;;;5033147;28;20082;-58
2021/09/23 08:56:21;;;;;;;0.90;0.70;;;24.20;48.90;;;;;;5017441;28;20033;-58
2021/09/23 08:58:47;;;;;;;1.50;0.80;;;24.20;48.90;;;;;;5022445;28;20029;-58
2021/09/23 09:01:21;;;;;;;1.42;1.00;;;24.20;48.90;;;;;;5016186;28;20115;-57
2021/09/23 09:04:01;;;;;;;1.92;1.10;;;24.30;48.80;;;;;;5021114;28;20037;-58
2021/09/23 09:06:27;;;;;;;1.00;0.80;;;24.30;48.70;;;;;;5019255;28;20096;-56
2021/09/23 09:08:53;;;;;;;1.27;0.90;;;24.30;48.80;;;;;;5021329;28;20044;-57
2021/09/23 09:11:19;;;;;;;1.30;0.88;;;24.30;48.70;;;;;;5024972;28;20022;-57
2021/09/23 09:13:48;;;;;;;0.98;0.70;;;24.40;48.70;;;;;;5026657;28;20036;-58
2021/09/23 09:16:15;;;;;;;;;;;24.30;48.70;;;;;;5023480;28;20034;-58
2021/09/23 09:18:43;;;;;;;1.48;0.82;;;24.30;48.80;;;;;;5019201;28;19920;-57
2021/09/23 09:21:12;;;;;;;1.23;0.90;;;24.30;48.80;;;;;;5028274;28;20033;-58
2021/09/23 09:23:43;;;;;;;1.45;0.70;;;24.30;48.80;;;;;;5037339;28;20075;-54
2021/09/23 09:26:10;;;;;;;2.03;0.95;;;24.40;48.90;;;;;;5020394;28;20371;-58
2021/09/23 09:28:51;;;;;;;1.15;0.80;;;24.30;48.70;;;;;;5021316;28;20095;-59
2021/09/23 09:31:17;;;;;;;1.40;0.90;;;24.40;48.70;;;;;;5016330;28;20045;-55
2021/09/23 09:33:45;;;;;;;2.13;0.88;;;24.40;48.80;;;;;;5012552;28;20029;-55
2021/09/23 09:36:34;;;;;;;1.45;0.90;;;24.40;48.70;;;;;;5031191;28;20080;-59
2021/09/23 09:39:19;;;;;;;1.83;0.70;;;24.40;48.90;;;;;;5038611;28;20080;-58
2021/09/23 09:41:52;;;;;;;1.17;0.80;;;24.40;48.80;;;;;;5022444;28;20084;-59
2021/09/23 09:44:19;;;;;;;1.67;0.80;;;24.40;48.80;;;;;;5020896;28;20424;-56
2021/09/23 09:46:51;;;;;;;0.88;0.70;;;24.40;48.80;;;;;;5029003;28;20055;-59
2021/09/23 09:49:20;;;;;;;0.82;0.73;;;24.50;48.80;;;;;;5028281;28;20095;-59
2021/09/23 09:51:52;;;;;;;1.05;0.80;;;24.40;48.70;;;;;;5029297;28;20112;-58
2021/09/23 09:54:20;;;;;;;0.80;0.70;;;24.50;48.80;;;;;;5019281;28;20029;-59
2021/09/23 09:56:54;;;;;;;1.02;0.70;;;24.50;48.80;;;;;;5027408;28;20025;-58
2021/09/23 09:59:20;;;;;;;0.88;0.77;;;24.50;48.80;;;;;;5020642;28;20060;-58
2021/09/23 10:01:50;;;;;;;1.42;0.90;;;24.50;48.70;;;;;;5027312;28;20425;-59
2021/09/23 10:04:18;;;;;;;1.05;0.80;;;24.50;48.70;;;;;;5032835;28;20106;-56
2021/09/23 10:06:44;;;;;;;1.95;0.90;;;24.50;48.60;;;;;;5032068;28;20025;-59
2021/09/23 10:09:13;;;;;;;1.23;0.88;;;24.50;48.60;;;;;;5025356;28;20025;-61
2021/09/23 10:11:42;;;;;;;1.40;0.80;;;24.50;48.70;;;;;;5029800;28;20184;-61
2021/09/23 10:14:10;;;;;;;1.70;1.00;;;24.60;48.70;;;;;;5021650;28;20034;-62
2021/09/23 10:16:37;;;;;;;1.33;0.80;;;24.60;48.60;;;;;;5027097;28;20114;-62
2021/09/23 10:19:03;;;;;;;1.67;1.00;;;24.60;48.60;;;;;;5027600;28;20029;-57
2021/09/23 10:21:29;;;;;;;1.15;1.00;;;24.60;48.50;;;;;;5030781;28;20035;-62
2021/09/23 10:23:55;;;;;;;0.95;0.80;;;24.60;48.60;;;;;;5025470;28;20037;-61
2021/09/23 10:26:25;;;;;;;0.75;0.60;;;24.60;48.70;;;;;;5021337;28;20069;-55
2021/09/23 10:28:53;;;;;;;0.90;0.80;;;24.70;48.70;;;;;;5022717;28;20029;-59
2021/09/23 10:31:21;;;;;;;2.35;0.90;;;24.70;49.20;;;;;;5025334;28;20037;-59
2021/09/23 10:33:48;;;;;;;1.10;0.85;;;24.70;48.80;;;;;;5030039;28;20072;-59
2021/09/23 10:36:16;;;;;;;0.90;0.70;;;24.70;48.70;;;;;;5025639;28;20060;-60
2021/09/23 10:38:44;;;;;;;1.20;0.80;;;24.70;48.70;;;;;;5020531;28;20042;-58
2021/09/23 10:41:13;;;;;;;1.25;0.80;;;24.70;48.60;;;;;;5026653;28;20025;-61
2021/09/23 10:43:42;;;;;;;1.10;0.90;;;24.70;48.40;;;;;;5024834;28;20104;-60
2021/09/23 10:46:11;;;;;;;2.10;1.05;;;24.70;48.30;;;;;;5024175;28;20021;-57
2021/09/23 10:48:37;;;;;;;1.42;0.98;;;24.70;48.90;;;;;;5024562;28;20025;-58
2021/09/23 10:51:05;;;;;;;0.95;0.80;;;24.70;48.40;;;;;;5028584;28;20419;-60
2021/09/23 10:53:36;;;;;;;1.58;0.93;;;24.70;48.40;;;;;;5024130;28;20053;-60
2021/09/23 10:56:06;;;;;;;2.80;0.95;;;24.70;48.40;;;;;;5024119;28;20037;-59
2021/09/23 10:58:33;;;;;;;1.25;0.90;;;24.70;48.40;;;;;;5018656;28;20041;-59
2021/09/23 11:01:00;;;;;;;0.80;0.77;;;24.70;48.40;;;;;;5022693;28;20077;-60
2021/09/23 11:03:35;;;;;;;1.52;1.00;;;24.70;48.40;;;;;;5026532;28;20048;-60
2021/09/23 11:06:07;;;;;;;1.95;1.10;;;24.70;48.30;;;;;;5018703;28;20040;-58
2021/09/23 11:08:38;;;;;;;1.08;0.90;;;24.70;48.30;;;;;;5022250;28;20024;-59
2021/09/23 11:11:06;;;;;;;0.80;0.70;;;24.70;48.30;;;;;;5021171;28;20091;-60
2021/09/23 11:13:35;;;;;;;2.08;0.80;;;24.70;48.30;;;;;;5013811;28;20061;-60
2021/09/23 11:16:03;;;;;;;1.23;0.80;;;24.70;48.30;;;;;;5019243;28;20375;-58
2021/09/23 11:18:30;;;;;;;1.02;0.80;;;24.70;48.30;;;;;;5023517;28;20105;-59
2021/09/23 11:20:57;;;;;;;1.30;0.88;;;24.70;48.30;;;;;;5023562;28;20044;-58
2021/09/23 11:23:23;;;;;;;1.60;1.00;;;24.70;48.30;;;;;;5024140;28;20083;-59
2021/09/23 11:25:50;;;;;;;1.25;0.77;;;24.80;48.40;;;;;;5034033;28;20055;-61
2021/09/23 11:28:20;;;;;;;1.33;0.90;;;24.70;48.30;;;;;;5026362;28;20112;-60
2021/09/23 11:30:46;;;;;;;1.17;0.65;;;24.70;48.30;;;;;;5026106;28;20128;-61
2021/09/23 11:33:14;;;;;;;1.02;0.85;;;24.70;48.40;;;;;;5031448;28;20030;-59
2021/09/23 11:35:43;;;;;;;1.00;0.80;;;24.70;48.40;;;;;;5029892;28;20132;-57
2021/09/23 11:38:10;;;;;;;1.20;0.70;;;24.70;48.40;;;;;;5028828;28;20697;-60
2021/09/23 11:40:39;;;;;;;0.75;0.75;;;24.70;48.40;;;;;;5022032;28;20312;-60
2021/09/23 11:43:07;;;;;;;1.10;0.77;;;24.70;48.40;;;;;;5020730;28;20033;-60
2021/09/23 11:45:35;;;;;;;1.10;0.77;;;24.70;48.40;;;;;;5018929;28;20383;-57
2021/09/23 11:48:08;;;;;;;1.10;0.80;;;24.80;48.50;;;;;;5021345;28;20087;-59
2021/09/23 11:50:44;;;;;;;1.13;0.82;;;24.70;48.50;;;;;;5022187;28;20033;-57
2021/09/23 11:53:13;;;;;;;0.98;0.70;;;24.70;48.50;;;;;;5018067;28;20727;-62
2021/09/23 11:55:55;;;;;;;1.25;0.82;;;24.70;48.50;;;;;;5024187;28;20033;-62
2021/09/23 11:58:21;;;;;;;1.58;0.90;;;24.80;48.50;;;;;;5017017;28;20104;-58
2021/09/23 12:00:49;;;;;;;0.70;0.70;;;24.80;48.60;;;;;;5022291;28;20068;-60
2021/09/23 12:03:16;;;;;;;0.70;0.60;;;24.80;48.60;;;;;;5024588;28;20033;-59
2021/09/23 12:05:43;;;;;;;0.70;0.70;;;24.80;48.50;;;;;;5023685;28;20760;-61
2021/09/23 12:08:14;;;;;;;1.13;0.70;;;24.80;48.40;;;;;;5022336;28;20048;-59
2021/09/23 12:10:45;;;;;;;1.00;0.70;;;24.80;48.40;;;;;;5027038;28;20524;-60
2021/09/23 12:13:13;;;;;;;1.33;0.80;;;24.90;48.50;;;;;;5023668;28;20723;-61
2021/09/23 12:15:39;;;;;;;1.10;0.80;;;24.90;48.50;;;;;;5024840;28;20036;-60
2021/09/23 12:18:09;;;;;;;0.70;0.70;;;24.90;48.40;;;;;;5023908;28;20442;-61
2021/09/23 12:20:38;;;;;;;1.10;0.80;;;24.90;48.90;;;;;;5015829;28;20022;-60
2021/09/23 12:23:25;;;;;;;1.30;0.70;;;24.90;48.40;;;;;;5015783;28;20040;-61
2021/09/23 12:26:12;;;;;;;0.80;0.70;;;24.90;48.50;;;;;;5018072;28;20036;-60
2021/09/23 12:28:43;;;;;;;0.95;0.80;;;24.90;48.40;;;;;;5015687;28;20021;-60
2021/09/23 12:31:12;;;;;;;1.05;0.80;;;24.90;48.40;;;;;;5019830;28;20048;-60
2021/09/23 12:33:53;;;;;;;1.77;0.80;;;25.00;48.40;;;;;;5024074;28;20030;-59
2021/09/23 12:36:25;;;;;;;1.50;0.85;;;25.00;48.40;;;;;;5021241;28;20607;-61
2021/09/23 12:39:11;;;;;;;1.13;0.80;;;25.00;48.40;;;;;;5019789;28;20429;-60
2021/09/23 12:41:38;;;;;;;0.93;0.80;;;25.00;49.00;;;;;;5023356;28;20033;-60
2021/09/23 12:44:06;;;;;;;0.98;0.75;;;25.00;48.50;;;;;;5019677;28;20503;-60
2021/09/23 12:46:32;;;;;;;1.05;0.90;;;25.00;48.40;;;;;;5022459;28;20035;-61
2021/09/23 12:49:15;;;;;;;0.65;0.63;;;25.00;48.50;;;;;;5020531;28;20497;-61